createdAt,value
2018-11-06T00:00:27.701Z,19.31
2018-11-06T00:01:27.674Z,19.12
2018-11-06T00:02:27.650Z,19.21
2018-11-06T00:03:27.621Z,19.21
2018-11-06T00:04:27.596Z,19.12
2018-11-06T00:05:27.571Z,19.21
2018-11-06T00:06:27.545Z,19.12
2018-11-06T00:07:27.519Z,18.64
2018-11-06T00:08:27.493Z,19.02
2018-11-06T00:09:27.571Z,19.02
2018-11-06T00:10:27.443Z,19.02
2018-11-06T00:11:27.416Z,18.84
2018-11-06T00:12:27.393Z,18.55
2018-11-06T00:13:27.366Z,18.84
2018-11-06T00:14:27.340Z,18.93
2018-11-06T00:15:27.313Z,18.84
2018-11-06T00:16:27.289Z,18.36
2018-11-06T00:17:27.263Z,18.45
2018-11-06T00:18:27.237Z,18.26
2018-11-06T00:19:27.211Z,18.16
2018-11-06T00:20:27.186Z,18.07
2018-11-06T00:21:27.160Z,18.26
2018-11-06T00:22:27.135Z,18.36
2018-11-06T00:23:27.108Z,18.16
2018-11-06T00:24:27.083Z,17.88
2018-11-06T00:25:27.056Z,17.88
2018-11-06T00:26:27.031Z,18.07
2018-11-06T00:27:27.010Z,17.79
2018-11-06T00:28:26.979Z,17.60
2018-11-06T00:29:26.953Z,17.60
2018-11-06T00:30:26.933Z,17.02
2018-11-06T00:31:26.902Z,17.02
2018-11-06T00:32:26.876Z,17.22
2018-11-06T00:33:26.852Z,17.12
2018-11-06T00:34:26.827Z,17.02
2018-11-06T00:35:26.800Z,17.02
2018-11-06T00:36:26.774Z,16.83
2018-11-06T00:37:26.748Z,16.27
2018-11-06T00:38:26.724Z,16.55
2018-11-06T00:39:26.726Z,16.46
2018-11-06T00:40:26.671Z,16.17
2018-11-06T00:41:26.646Z,15.98
2018-11-06T00:42:26.621Z,15.98
2018-11-06T00:43:26.594Z,16.08
2018-11-06T00:44:26.569Z,16.36
2018-11-06T00:45:26.544Z,16.55
2018-11-06T00:46:28.020Z,16.55
2018-11-06T00:47:26.491Z,16.64
2018-11-06T00:48:26.465Z,17.12
2018-11-06T00:49:26.440Z,16.83
2018-11-06T00:50:26.416Z,17.31
2018-11-06T00:51:26.390Z,17.31
2018-11-06T00:52:26.363Z,17.50
2018-11-06T00:53:26.338Z,17.97
2018-11-06T00:54:26.314Z,17.88
2018-11-06T00:55:26.287Z,17.97
2018-11-06T00:56:26.261Z,17.88
2018-11-06T00:57:26.239Z,17.88
2018-11-06T00:58:26.210Z,18.16
2018-11-06T00:59:26.185Z,17.97
2018-11-06T01:00:26.159Z,18.26
2018-11-06T01:01:26.135Z,18.36
2018-11-06T01:02:26.109Z,18.36
2018-11-06T01:03:27.583Z,19.02
2018-11-06T01:04:26.060Z,19.40
2018-11-06T01:05:26.032Z,19.40
2018-11-06T01:06:26.006Z,19.59
2018-11-06T01:07:25.980Z,19.88
2018-11-06T01:08:25.955Z,20.07
2018-11-06T01:09:25.930Z,19.78
2018-11-06T01:10:25.905Z,20.73
2018-11-06T01:11:25.878Z,20.83
2018-11-06T01:12:25.853Z,21.21
2018-11-06T01:13:25.827Z,21.21
2018-11-06T01:14:25.803Z,21.59
2018-11-06T01:15:25.776Z,21.50
2018-11-06T01:16:25.752Z,21.88
2018-11-06T01:17:25.725Z,21.97
2018-11-06T01:18:25.700Z,22.26
2018-11-06T01:19:25.678Z,22.26
2018-11-06T01:20:26.402Z,22.26
2018-11-06T01:21:25.625Z,22.45
2018-11-06T01:22:25.598Z,22.35
2018-11-06T01:23:25.572Z,22.45
2018-11-06T01:24:25.547Z,21.78
2018-11-06T01:25:25.522Z,22.45
2018-11-06T01:26:25.498Z,22.45
2018-11-06T01:27:25.472Z,22.35
2018-11-06T01:28:25.445Z,22.16
2018-11-06T01:29:25.420Z,22.74
2018-11-06T01:30:25.395Z,22.83
2018-11-06T01:31:25.370Z,22.54
2018-11-06T01:32:25.345Z,23.02
2018-11-06T01:33:25.318Z,23.21
2018-11-06T01:34:25.294Z,23.49
2018-11-06T01:35:25.269Z,23.40
2018-11-06T01:36:25.242Z,23.78
2018-11-06T01:37:25.218Z,24.44
2018-11-06T01:38:25.192Z,24.26
2018-11-06T01:39:25.166Z,24.35
2018-11-06T01:40:25.143Z,24.26
2018-11-06T01:41:25.115Z,24.44
2018-11-06T01:42:25.090Z,24.82
2018-11-06T01:43:25.064Z,24.73
2018-11-06T01:44:25.041Z,24.26
2018-11-06T01:45:25.014Z,24.16
2018-11-06T01:46:24.989Z,24.63
2018-11-06T01:47:24.963Z,24.63
2018-11-06T01:48:24.937Z,24.54
2018-11-06T01:49:24.913Z,24.73
2018-11-06T01:50:24.888Z,25.02
2018-11-06T01:51:24.861Z,24.82
2018-11-06T01:52:24.837Z,25.11
2018-11-06T01:53:24.812Z,25.11
2018-11-06T01:54:24.786Z,24.92
2018-11-06T01:55:24.761Z,24.63
2018-11-06T01:56:24.735Z,24.82
2018-11-06T01:57:24.711Z,24.73
2018-11-06T01:58:24.684Z,24.73
2018-11-06T01:59:24.658Z,25.11
2018-11-06T02:00:24.633Z,24.73
2018-11-06T02:01:24.608Z,25.11
2018-11-06T02:02:24.582Z,25.40
2018-11-06T02:03:24.556Z,25.87
2018-11-06T02:04:24.530Z,26.25
2018-11-06T02:05:24.506Z,26.06
2018-11-06T02:06:24.480Z,25.68
2018-11-06T02:07:25.205Z,25.68
2018-11-06T02:08:24.430Z,25.68
2018-11-06T02:09:24.405Z,25.78
2018-11-06T02:10:24.379Z,25.87
2018-11-06T02:11:24.354Z,25.78
2018-11-06T02:12:24.329Z,26.35
2018-11-06T02:13:24.303Z,26.44
2018-11-06T02:14:24.277Z,26.25
2018-11-06T02:15:24.250Z,26.54
2018-11-06T02:16:24.225Z,27.01
2018-11-06T02:17:24.200Z,26.82
2018-11-06T02:18:24.174Z,27.49
2018-11-06T02:19:24.151Z,27.97
2018-11-06T02:20:24.124Z,28.16
2018-11-06T02:21:24.099Z,28.92
2018-11-06T02:22:24.073Z,29.11
2018-11-06T02:23:24.047Z,28.72
2018-11-06T02:24:24.023Z,28.92
2018-11-06T02:25:23.997Z,29.30
2018-11-06T02:26:23.972Z,29.20
2018-11-06T02:27:23.945Z,29.77
2018-11-06T02:28:23.920Z,29.49
2018-11-06T02:29:23.897Z,29.86
2018-11-06T02:30:23.870Z,29.68
2018-11-06T02:31:23.844Z,30.15
2018-11-06T02:32:23.905Z,29.77
2018-11-06T02:33:23.795Z,29.58
2018-11-06T02:34:23.773Z,29.96
2018-11-06T02:35:23.749Z,30.73
2018-11-06T02:36:23.719Z,30.63
2018-11-06T02:37:23.693Z,31.10
2018-11-06T02:38:23.668Z,30.34
2018-11-06T02:39:23.647Z,31.01
2018-11-06T02:40:23.615Z,31.01
2018-11-06T02:41:23.593Z,30.91
2018-11-06T02:42:23.565Z,30.91
2018-11-06T02:43:23.539Z,29.96
2018-11-06T02:44:23.529Z,30.54
2018-11-06T02:45:23.489Z,30.34
2018-11-06T02:46:23.463Z,30.73
2018-11-06T02:47:23.438Z,31.39
2018-11-06T02:48:23.412Z,31.58
2018-11-06T02:49:24.891Z,32.62
2018-11-06T02:50:23.363Z,33.01
2018-11-06T02:51:23.339Z,34.05
2018-11-06T02:52:23.313Z,34.72
2018-11-06T02:53:23.285Z,34.81
2018-11-06T02:54:23.260Z,35.19
2018-11-06T02:55:24.735Z,35.29
2018-11-06T02:56:23.209Z,35.58
2018-11-06T02:57:23.185Z,34.81
2018-11-06T02:58:23.158Z,34.81
2018-11-06T02:59:23.133Z,34.24
2018-11-06T03:00:23.108Z,33.39
2018-11-06T03:01:23.082Z,33.10
2018-11-06T03:02:23.058Z,33.01
2018-11-06T03:03:23.030Z,32.62
2018-11-06T03:04:23.006Z,32.82
2018-11-06T03:05:22.980Z,32.91
2018-11-06T03:06:22.955Z,33.39
2018-11-06T03:07:22.929Z,34.44
2018-11-06T03:08:22.906Z,34.63
2018-11-06T03:09:22.879Z,35.58
2018-11-06T03:10:22.947Z,36.33
2018-11-06T03:11:22.830Z,37.38
2018-11-06T03:12:22.803Z,38.24
2018-11-06T03:13:22.777Z,37.76
2018-11-06T03:14:22.753Z,37.00
2018-11-06T03:15:22.727Z,36.41
2018-11-06T03:16:22.702Z,35.58
2018-11-06T03:17:22.676Z,34.63
2018-11-06T03:18:22.652Z,34.24
2018-11-06T03:19:22.625Z,33.86
2018-11-06T03:20:22.601Z,33.77
2018-11-06T03:21:22.576Z,33.48
2018-11-06T03:22:22.550Z,33.20
2018-11-06T03:23:22.526Z,33.96
2018-11-06T03:24:22.499Z,34.81
2018-11-06T03:25:22.473Z,34.81
2018-11-06T03:26:22.448Z,35.96
2018-11-06T03:27:22.429Z,36.33
2018-11-06T03:28:22.396Z,35.58
2018-11-06T03:29:22.372Z,35.67
2018-11-06T03:30:22.351Z,34.53
2018-11-06T03:31:22.321Z,35.10
2018-11-06T03:32:22.296Z,34.63
2018-11-06T03:33:22.269Z,34.63
2018-11-06T03:34:22.253Z,34.63
2018-11-06T03:35:22.218Z,34.23
2018-11-06T03:36:22.193Z,33.67
2018-11-06T03:37:22.167Z,33.96
2018-11-06T03:38:22.143Z,34.72
2018-11-06T03:39:22.116Z,34.53
2018-11-06T03:40:22.091Z,34.91
2018-11-06T03:41:22.066Z,35.56
2018-11-06T03:42:22.041Z,36.62
2018-11-06T03:43:22.014Z,37.65
2018-11-06T03:44:21.989Z,37.84
2018-11-06T03:45:21.971Z,36.41
2018-11-06T03:46:21.940Z,35.17
2018-11-06T03:47:21.912Z,34.70
2018-11-06T03:48:21.887Z,34.03
2018-11-06T03:49:21.862Z,33.37
2018-11-06T03:50:21.840Z,32.91
2018-11-06T03:51:21.812Z,33.56
2018-11-06T03:52:21.785Z,34.15
2018-11-06T03:53:21.761Z,34.72
2018-11-06T03:54:21.735Z,35.10
2018-11-06T03:55:21.709Z,35.38
2018-11-06T03:56:21.684Z,35.67
2018-11-06T03:57:21.658Z,35.86
2018-11-06T03:58:21.632Z,37.18
2018-11-06T03:59:21.606Z,37.46
2018-11-06T04:00:21.581Z,36.04
2018-11-06T04:01:21.560Z,35.65
2018-11-06T04:02:21.531Z,35.37
2018-11-06T04:03:21.506Z,35.27
2018-11-06T04:04:21.479Z,34.61
2018-11-06T04:05:21.453Z,34.13
2018-11-06T04:06:21.431Z,33.58
2018-11-06T04:07:21.404Z,33.77
2018-11-06T04:08:21.377Z,33.67
2018-11-06T04:09:21.353Z,34.63
2018-11-06T04:10:21.326Z,34.63
2018-11-06T04:11:21.299Z,35.96
2018-11-06T04:12:21.275Z,36.24
2018-11-06T04:13:21.249Z,36.72
2018-11-06T04:14:21.224Z,37.67
2018-11-06T04:15:21.199Z,37.86
2018-11-06T04:16:21.173Z,37.95
2018-11-06T04:17:21.148Z,37.29
2018-11-06T04:18:21.123Z,37.86
2018-11-06T04:19:21.095Z,38.05
2018-11-06T04:20:21.071Z,38.34
2018-11-06T04:21:21.044Z,38.53
2018-11-06T04:22:21.020Z,38.90
2018-11-06T04:23:20.994Z,39.28
2018-11-06T04:24:20.967Z,39.48
2018-11-06T04:25:20.942Z,39.28
2018-11-06T04:26:20.918Z,39.00
2018-11-06T04:27:20.891Z,38.71
2018-11-06T04:28:20.865Z,38.60
2018-11-06T04:29:20.843Z,38.43
2018-11-06T04:30:20.815Z,39.09
2018-11-06T04:31:20.793Z,39.76
2018-11-06T04:32:20.765Z,40.05
2018-11-06T04:33:20.739Z,40.71
2018-11-06T04:34:20.713Z,41.47
2018-11-06T04:35:20.687Z,40.62
2018-11-06T04:36:20.661Z,40.52
2018-11-06T04:37:20.636Z,40.52
2018-11-06T04:38:20.611Z,40.62
2018-11-06T04:39:20.588Z,40.43
2018-11-06T04:40:20.559Z,41.09
2018-11-06T04:41:20.535Z,41.09
2018-11-06T04:42:21.260Z,41.09
2018-11-06T04:43:20.484Z,41.47
2018-11-06T04:44:20.461Z,41.38
2018-11-06T04:45:20.433Z,42.99
2018-11-06T04:46:20.408Z,42.24
2018-11-06T04:47:20.381Z,41.85
2018-11-06T04:48:20.355Z,41.09
2018-11-06T04:49:20.331Z,40.90
2018-11-06T04:50:20.331Z,40.90
2018-11-06T04:51:20.278Z,40.81
2018-11-06T04:52:20.253Z,41.19
2018-11-06T04:53:20.228Z,41.00
2018-11-06T04:54:20.203Z,41.38
2018-11-06T04:55:20.177Z,42.52
2018-11-06T04:56:20.154Z,42.33
2018-11-06T04:57:20.128Z,42.71
2018-11-06T04:58:20.101Z,43.85
2018-11-06T04:59:20.075Z,44.23
2018-11-06T05:00:20.049Z,44.90
2018-11-06T05:01:20.024Z,45.09
2018-11-06T05:02:19.999Z,45.56
2018-11-06T05:03:19.976Z,45.56
2018-11-06T05:04:20.698Z,46.23
2018-11-06T05:05:19.922Z,46.99
2018-11-06T05:06:19.897Z,47.18
2018-11-06T05:07:19.871Z,47.18
2018-11-06T05:08:19.845Z,46.23
2018-11-06T05:09:19.821Z,46.04
2018-11-06T05:10:19.796Z,45.37
2018-11-06T05:11:19.769Z,44.71
2018-11-06T05:12:19.744Z,44.23
2018-11-06T05:13:19.720Z,44.61
2018-11-06T05:14:19.756Z,44.33
2018-11-06T05:15:19.668Z,44.23
2018-11-06T05:16:19.641Z,43.85
2018-11-06T05:17:19.617Z,43.83
2018-11-06T05:18:19.592Z,43.85
2018-11-06T05:19:19.565Z,43.28
2018-11-06T05:20:20.292Z,44.04
2018-11-06T05:21:19.516Z,43.85
2018-11-06T05:22:19.489Z,43.95
2018-11-06T05:23:19.463Z,44.12
2018-11-06T05:24:19.438Z,44.80
2018-11-06T05:25:19.452Z,45.09
2018-11-06T05:26:19.388Z,45.75
2018-11-06T05:27:19.431Z,46.23
2018-11-06T05:28:19.336Z,46.33
2018-11-06T05:29:19.311Z,46.30
2018-11-06T05:30:19.290Z,46.49
2018-11-06T05:31:19.261Z,46.33
2018-11-06T05:32:19.235Z,46.42
2018-11-06T05:33:19.209Z,46.42
2018-11-06T05:34:19.185Z,46.70
2018-11-06T05:35:19.157Z,46.01
2018-11-06T05:36:19.135Z,45.64
2018-11-06T05:37:19.106Z,45.54
2018-11-06T05:38:19.081Z,45.45
2018-11-06T05:39:19.057Z,45.54
2018-11-06T05:40:19.032Z,45.73
2018-11-06T05:41:19.006Z,45.73
2018-11-06T05:42:18.979Z,46.30
2018-11-06T05:43:18.954Z,45.92
2018-11-06T05:44:18.934Z,46.59
2018-11-06T05:45:18.913Z,46.78
2018-11-06T05:46:18.877Z,47.16
2018-11-06T05:47:19.600Z,47.82
2018-11-06T05:48:18.824Z,47.94
2018-11-06T05:49:18.799Z,47.92
2018-11-06T05:50:18.773Z,49.15
2018-11-06T05:51:18.748Z,49.44
2018-11-06T05:52:18.723Z,51.75
2018-11-06T05:53:18.803Z,52.98
2018-11-06T05:54:18.672Z,53.27
2018-11-06T05:55:18.646Z,52.70
2018-11-06T05:56:18.620Z,53.46
2018-11-06T05:57:18.596Z,53.94
2018-11-06T05:58:18.569Z,54.50
2018-11-06T05:59:18.544Z,55.05
2018-11-06T06:00:18.572Z,55.08
2018-11-06T06:01:18.492Z,54.98
2018-11-06T06:02:18.466Z,55.27
2018-11-06T06:03:18.440Z,55.93
2018-11-06T06:04:18.417Z,56.03
2018-11-06T06:05:18.392Z,55.90
2018-11-06T06:06:18.364Z,56.41
2018-11-06T06:07:18.338Z,56.03
2018-11-06T06:08:18.314Z,57.26
2018-11-06T06:09:18.289Z,57.04
2018-11-06T06:10:18.262Z,58.12
2018-11-06T06:11:18.432Z,57.93
2018-11-06T06:12:18.213Z,57.93
2018-11-06T06:13:18.185Z,57.71
2018-11-06T06:14:18.162Z,58.40
2018-11-06T06:15:18.134Z,58.98
2018-11-06T06:16:18.109Z,60.41
2018-11-06T06:17:18.149Z,60.69
2018-11-06T06:18:18.059Z,60.31
2018-11-06T06:19:18.032Z,59.74
2018-11-06T06:20:18.007Z,59.45
2018-11-06T06:21:17.982Z,59.36
2018-11-06T06:22:17.962Z,60.88
2018-11-06T06:23:17.933Z,62.21
2018-11-06T06:24:17.905Z,63.07
2018-11-06T06:25:17.885Z,66.59
2018-11-06T06:26:17.855Z,67.25
2018-11-06T06:27:17.828Z,67.82
2018-11-06T06:28:17.854Z,67.92
2018-11-06T06:29:17.780Z,68.01
2018-11-06T06:30:18.504Z,68.30
2018-11-06T06:31:17.726Z,68.96
2018-11-06T06:32:17.701Z,70.30
2018-11-06T06:33:17.676Z,71.15
2018-11-06T06:34:17.651Z,71.53
2018-11-06T06:35:17.651Z,71.91
2018-11-06T06:36:17.600Z,72.39
2018-11-06T06:37:17.575Z,72.96
2018-11-06T06:38:17.549Z,72.67
2018-11-06T06:39:17.523Z,72.67
2018-11-06T06:40:17.525Z,72.86
2018-11-06T06:41:17.478Z,72.77
2018-11-06T06:42:17.448Z,73.34
2018-11-06T06:43:17.422Z,73.25
2018-11-06T06:44:17.395Z,73.44
2018-11-06T06:45:17.370Z,74.29
2018-11-06T06:46:17.410Z,73.72
2018-11-06T06:47:17.319Z,74.01
2018-11-06T06:48:17.294Z,74.67
2018-11-06T06:49:17.268Z,74.77
2018-11-06T06:50:17.243Z,75.72
2018-11-06T06:51:17.218Z,74.87
2018-11-06T06:52:17.193Z,74.48
2018-11-06T06:53:17.167Z,74.58
2018-11-06T06:54:17.412Z,74.20
2018-11-06T06:55:17.312Z,73.82
2018-11-06T06:56:17.840Z,74.96
2018-11-06T06:57:17.064Z,75.15
2018-11-06T06:58:17.040Z,74.87
2018-11-06T06:59:17.015Z,75.05
2018-11-06T07:00:16.988Z,74.77
2018-11-06T07:01:16.963Z,75.05
2018-11-06T07:02:16.968Z,75.53
2018-11-06T07:03:16.912Z,76.48
2018-11-06T07:04:16.886Z,76.48
2018-11-06T07:05:16.861Z,77.53
2018-11-06T07:06:16.837Z,78.00
2018-11-06T07:07:16.813Z,78.48
2018-11-06T07:08:16.786Z,79.52
2018-11-06T07:09:16.761Z,81.24
2018-11-06T07:10:16.734Z,81.90
2018-11-06T07:11:16.710Z,81.81
2018-11-06T07:12:17.434Z,82.42
2018-11-06T07:13:16.659Z,82.28
2018-11-06T07:14:16.633Z,83.23
2018-11-06T07:15:16.609Z,83.37
2018-11-06T07:16:16.583Z,84.70
2018-11-06T07:17:16.558Z,84.33
2018-11-06T07:18:16.534Z,84.13
2018-11-06T07:19:16.508Z,84.70
2018-11-06T07:20:16.482Z,84.76
2018-11-06T07:21:16.457Z,85.37
2018-11-06T07:22:16.432Z,85.75
2018-11-06T07:23:21.660Z,86.99
2018-11-06T07:24:16.381Z,86.51
2018-11-06T07:25:16.357Z,86.32
2018-11-06T07:26:16.330Z,86.42
2018-11-06T07:27:16.304Z,86.51
2018-11-06T07:28:16.279Z,86.99
2018-11-06T07:29:17.005Z,86.99
2018-11-06T07:30:16.231Z,86.13
2018-11-06T07:31:16.204Z,87.08
2018-11-06T07:32:16.183Z,87.56
2018-11-06T07:33:16.155Z,89.65
2018-11-06T07:34:16.129Z,88.23
2018-11-06T07:35:16.193Z,87.46
2018-11-06T07:36:16.079Z,88.04
2018-11-06T07:37:16.054Z,88.13
2018-11-06T07:38:16.029Z,88.32
2018-11-06T07:39:16.005Z,89.08
2018-11-06T07:40:15.978Z,89.27
2018-11-06T07:41:16.110Z,88.89
2018-11-06T07:42:15.930Z,90.03
2018-11-06T07:43:15.904Z,88.70
2018-11-06T07:44:15.879Z,89.56
2018-11-06T07:45:16.608Z,90.32
2018-11-06T07:46:15.830Z,89.65
2018-11-06T07:47:15.803Z,89.08
2018-11-06T07:48:15.778Z,89.75
2018-11-06T07:49:15.756Z,89.65
2018-11-06T07:50:15.771Z,89.84
2018-11-06T07:51:15.704Z,89.56
2018-11-06T07:52:15.678Z,89.84
2018-11-06T07:53:15.654Z,89.47
2018-11-06T07:54:15.630Z,89.47
2018-11-06T07:55:15.603Z,89.65
2018-11-06T07:56:15.650Z,90.32
2018-11-06T07:57:15.554Z,89.56
2018-11-06T07:58:15.529Z,90.13
2018-11-06T07:59:15.503Z,89.94
2018-11-06T08:00:15.486Z,89.84
2018-11-06T08:01:15.455Z,89.27
2018-11-06T08:02:15.434Z,88.79
2018-11-06T08:03:15.404Z,89.18
2018-11-06T08:04:15.399Z,90.13
2018-11-06T08:05:15.356Z,91.08
2018-11-06T08:06:15.397Z,89.56
2018-11-06T08:07:15.305Z,88.42
2018-11-06T08:08:15.281Z,88.79
2018-11-06T08:09:15.255Z,89.37
2018-11-06T08:10:15.239Z,88.32
2018-11-06T08:11:15.205Z,89.75
2018-11-06T08:12:15.181Z,89.84
2018-11-06T08:13:15.159Z,89.84
2018-11-06T08:14:15.132Z,90.13
2018-11-06T08:15:15.265Z,91.37
2018-11-06T08:16:15.082Z,92.79
2018-11-06T08:17:15.057Z,93.74
2018-11-06T08:18:15.037Z,93.27
2018-11-06T08:19:15.007Z,93.13
2018-11-06T08:20:14.984Z,93.51
2018-11-06T08:21:15.709Z,91.65
2018-11-06T08:22:14.934Z,91.17
2018-11-06T08:23:14.909Z,92.51
2018-11-06T08:24:14.885Z,92.74
2018-11-06T08:25:14.863Z,91.75
2018-11-06T08:26:14.835Z,93.37
2018-11-06T08:27:14.811Z,93.70
2018-11-06T08:28:14.786Z,93.79
2018-11-06T08:29:14.762Z,93.79
2018-11-06T08:30:14.855Z,92.46
2018-11-06T08:31:15.100Z,93.22
2018-11-06T08:32:15.064Z,94.74
2018-11-06T08:33:14.664Z,95.60
2018-11-06T08:34:14.640Z,95.60
2018-11-06T08:35:14.616Z,95.12
2018-11-06T08:36:14.590Z,95.12
2018-11-06T08:37:14.566Z,95.79
2018-11-06T08:38:14.541Z,96.08
2018-11-06T08:39:14.517Z,96.84
2018-11-06T08:40:14.493Z,96.46
2018-11-06T08:41:14.468Z,96.36
2018-11-06T08:42:14.466Z,96.36
2018-11-06T08:43:14.420Z,96.75
2018-11-06T08:44:14.395Z,96.27
2018-11-06T08:45:14.372Z,95.79
2018-11-06T08:46:14.347Z,95.22
2018-11-06T08:47:14.322Z,95.32
2018-11-06T08:48:14.358Z,95.60
2018-11-06T08:49:14.275Z,96.46
2018-11-06T08:50:14.251Z,94.46
2018-11-06T08:51:14.226Z,95.60
2018-11-06T08:52:14.205Z,96.08
2018-11-06T08:53:14.179Z,95.89
2018-11-06T08:54:14.158Z,97.51
2018-11-06T08:55:14.131Z,96.27
2018-11-06T08:56:14.105Z,95.41
2018-11-06T08:57:14.084Z,96.17
2018-11-06T08:58:14.061Z,96.46
2018-11-06T08:59:14.035Z,95.79
2018-11-06T09:00:14.008Z,95.70
2018-11-06T09:01:13.984Z,95.98
2018-11-06T09:02:13.960Z,96.27
2018-11-06T09:03:13.936Z,96.55
2018-11-06T09:04:13.911Z,95.94
2018-11-06T09:05:13.890Z,95.79
2018-11-06T09:06:13.864Z,95.46
2018-11-06T09:07:13.839Z,97.46
2018-11-06T09:08:13.815Z,97.17
2018-11-06T09:09:13.791Z,97.22
2018-11-06T09:10:13.768Z,97.51
2018-11-06T09:11:13.744Z,96.27
2018-11-06T09:12:13.722Z,97.46
2018-11-06T09:13:13.698Z,95.89
2018-11-06T09:14:14.423Z,97.22
2018-11-06T09:15:13.650Z,96.03
2018-11-06T09:16:13.623Z,98.27
2018-11-06T09:17:13.600Z,98.99
2018-11-06T09:18:13.576Z,97.27
2018-11-06T09:19:13.555Z,97.03
2018-11-06T09:20:13.531Z,98.27
2018-11-06T09:21:13.504Z,97.89
2018-11-06T09:22:13.479Z,97.17
2018-11-06T09:23:13.454Z,97.08
2018-11-06T09:24:13.431Z,96.70
2018-11-06T09:25:14.909Z,97.46
2018-11-06T09:26:13.383Z,96.98
2018-11-06T09:27:13.360Z,97.46
2018-11-06T09:28:13.336Z,97.75
2018-11-06T09:29:13.313Z,99.08
2018-11-06T09:30:13.315Z,98.89
2018-11-06T09:31:14.014Z,98.03
2018-11-06T09:32:13.239Z,98.03
2018-11-06T09:33:13.217Z,98.03
2018-11-06T09:34:13.192Z,98.13
2018-11-06T09:35:13.210Z,98.41
2018-11-06T09:36:13.148Z,97.94
2018-11-06T09:37:13.120Z,97.75
2018-11-06T09:38:13.096Z,97.08
2018-11-06T09:39:13.072Z,97.94
2018-11-06T09:40:13.049Z,97.46
2018-11-06T09:41:13.034Z,97.36
2018-11-06T09:42:13.752Z,97.75
2018-11-06T09:43:12.977Z,98.32
2018-11-06T09:44:12.955Z,97.94
2018-11-06T09:45:13.069Z,98.13
2018-11-06T09:46:12.908Z,98.41
2018-11-06T09:47:12.882Z,98.79
2018-11-06T09:48:12.857Z,97.65
2018-11-06T09:49:12.834Z,98.13
2018-11-06T09:50:12.811Z,97.75
2018-11-06T09:51:12.789Z,97.27
2018-11-06T09:52:12.763Z,97.65
2018-11-06T09:53:13.490Z,98.13
2018-11-06T09:54:12.715Z,97.17
2018-11-06T09:55:12.691Z,97.65
2018-11-06T09:56:12.668Z,97.75
2018-11-06T09:57:12.644Z,97.84
2018-11-06T09:58:12.620Z,97.80
2018-11-06T09:59:12.596Z,97.36
2018-11-06T10:00:12.592Z,98.18
2018-11-06T10:01:12.553Z,98.85
2018-11-06T10:02:12.530Z,98.65
2018-11-06T10:03:12.502Z,98.27
2018-11-06T10:04:12.479Z,99.13
2018-11-06T10:05:12.455Z,98.85
2018-11-06T10:06:12.513Z,99.99
2018-11-06T10:07:12.568Z,99.41
2018-11-06T10:08:12.386Z,99.99
2018-11-06T10:09:12.405Z,99.80
2018-11-06T10:10:12.339Z,99.99
2018-11-06T10:11:12.313Z,99.99
2018-11-06T10:12:12.290Z,99.99
2018-11-06T10:13:12.267Z,99.99
2018-11-06T10:14:12.244Z,99.99
2018-11-06T10:15:12.220Z,99.99
2018-11-06T10:16:12.199Z,99.99
2018-11-06T10:17:12.173Z,99.99
2018-11-06T10:18:12.150Z,99.99
2018-11-06T10:19:12.127Z,99.99
2018-11-06T10:20:12.103Z,99.99
2018-11-06T10:21:12.165Z,99.99
2018-11-06T10:22:12.058Z,99.99
2018-11-06T10:23:12.035Z,99.99
2018-11-06T10:24:12.011Z,99.99
2018-11-06T10:25:12.740Z,99.99
2018-11-06T10:26:11.965Z,99.99
2018-11-06T10:27:11.941Z,99.99
2018-11-06T10:28:11.917Z,99.99
2018-11-06T10:29:11.895Z,99.99
2018-11-06T10:30:11.873Z,99.99
2018-11-06T10:31:11.851Z,99.99
2018-11-06T10:32:11.825Z,99.99
2018-11-06T10:33:11.802Z,99.99
2018-11-06T10:34:11.780Z,99.99
2018-11-06T10:35:11.755Z,99.99
2018-11-06T10:36:11.734Z,99.99
2018-11-06T10:37:11.711Z,99.99
2018-11-06T10:38:11.783Z,99.99
2018-11-06T10:39:11.663Z,99.99
2018-11-06T10:40:11.642Z,99.99
2018-11-06T10:41:11.620Z,99.99
2018-11-06T10:42:11.595Z,99.99
2018-11-06T10:43:11.572Z,99.99
2018-11-06T10:44:11.550Z,99.99
2018-11-06T10:45:11.527Z,99.99
2018-11-06T10:46:11.507Z,99.99
2018-11-06T10:47:11.485Z,99.99
2018-11-06T10:48:11.459Z,99.99
2018-11-06T10:49:11.434Z,99.99
2018-11-06T10:50:11.410Z,99.99
2018-11-06T10:51:17.393Z,99.99
2018-11-06T10:52:11.364Z,99.99
2018-11-06T10:53:11.342Z,99.99
2018-11-06T10:54:11.319Z,99.99
2018-11-06T10:55:11.295Z,99.99
2018-11-06T10:56:11.275Z,99.99
2018-11-06T10:57:13.508Z,99.99
2018-11-06T10:58:11.328Z,99.99
2018-11-06T10:59:11.202Z,99.99
2018-11-06T11:00:11.179Z,99.99
2018-11-06T11:01:11.157Z,99.99
2018-11-06T11:02:11.133Z,99.99
2018-11-06T11:03:12.611Z,99.99
2018-11-06T11:04:11.159Z,99.99
2018-11-06T11:05:11.064Z,99.99
2018-11-06T11:06:11.041Z,99.99
2018-11-06T11:07:11.018Z,99.99
2018-11-06T11:08:10.995Z,99.99
2018-11-06T11:09:11.724Z,99.99
2018-11-06T11:10:10.950Z,99.99
2018-11-06T11:11:10.930Z,99.99
2018-11-06T11:12:10.902Z,99.99
2018-11-06T11:13:10.886Z,99.99
2018-11-06T11:14:10.866Z,99.99
2018-11-06T11:15:10.832Z,99.99
2018-11-06T11:16:10.810Z,99.99
2018-11-06T11:17:10.787Z,99.99
2018-11-06T11:18:10.766Z,99.99
2018-11-06T11:19:10.740Z,99.99
2018-11-06T11:20:10.778Z,99.99
2018-11-06T11:21:10.695Z,99.99
2018-11-06T11:22:10.672Z,99.99
2018-11-06T11:23:10.649Z,99.99
2018-11-06T11:24:10.625Z,99.99
2018-11-06T11:25:10.603Z,99.99
2018-11-06T11:26:10.582Z,99.99
2018-11-06T11:27:10.556Z,99.99
2018-11-06T11:28:10.536Z,99.99
2018-11-06T11:29:10.510Z,99.99
2018-11-06T11:30:10.487Z,99.99
2018-11-06T11:31:10.464Z,99.99
2018-11-06T11:32:10.444Z,99.99
2018-11-06T11:33:10.418Z,99.99
2018-11-06T11:34:10.395Z,99.99
2018-11-06T11:35:10.372Z,99.99
2018-11-06T11:36:10.348Z,99.99
2018-11-06T11:37:10.325Z,99.99
2018-11-06T11:38:10.303Z,99.99
2018-11-06T11:39:10.279Z,99.99
2018-11-06T11:40:10.257Z,99.99
2018-11-06T11:41:10.233Z,99.99
2018-11-06T11:42:10.211Z,99.99
2018-11-06T11:43:10.186Z,99.99
2018-11-06T11:44:10.164Z,99.99
2018-11-06T11:45:10.142Z,99.99
2018-11-06T11:46:10.117Z,99.99
2018-11-06T11:47:10.095Z,99.99
2018-11-06T11:48:10.072Z,99.99
2018-11-06T11:49:10.050Z,99.99
2018-11-06T11:50:10.026Z,99.99
2018-11-06T11:51:10.003Z,99.99
2018-11-06T11:52:10.059Z,99.99
2018-11-06T11:53:09.957Z,99.99
2018-11-06T11:54:09.935Z,99.99
2018-11-06T11:55:09.910Z,99.99
2018-11-06T11:56:09.887Z,99.99
2018-11-06T11:57:09.865Z,99.99
2018-11-06T11:58:09.841Z,99.99
2018-11-06T11:59:09.819Z,99.99
2018-11-06T12:00:09.838Z,99.99
2018-11-06T12:01:09.771Z,99.99
2018-11-06T12:02:09.764Z,99.99
2018-11-06T12:03:09.726Z,99.99
2018-11-06T12:04:09.702Z,99.99
2018-11-06T12:05:09.683Z,99.99
2018-11-06T12:06:09.657Z,99.99
2018-11-06T12:07:09.634Z,99.99
2018-11-06T12:08:09.610Z,99.99
2018-11-06T12:09:09.590Z,99.99
2018-11-06T12:10:09.565Z,99.99
2018-11-06T12:11:09.551Z,99.99
2018-11-06T12:12:09.520Z,99.99
2018-11-06T12:13:09.501Z,99.99
2018-11-06T12:14:09.474Z,99.99
2018-11-06T12:15:09.450Z,99.99
2018-11-06T12:16:09.427Z,99.99
2018-11-06T12:17:09.405Z,99.99
2018-11-06T12:18:09.412Z,99.99
2018-11-06T12:19:09.358Z,99.99
2018-11-06T12:20:09.336Z,99.99
2018-11-06T12:21:09.313Z,99.99
2018-11-06T12:22:09.291Z,99.99
2018-11-06T12:23:09.268Z,99.99
2018-11-06T12:24:09.317Z,99.99
2018-11-06T12:25:09.483Z,99.99
2018-11-06T12:26:09.200Z,99.99
2018-11-06T12:27:09.176Z,99.99
2018-11-06T12:28:09.154Z,99.99
2018-11-06T12:29:09.131Z,99.99
2018-11-06T12:30:09.110Z,99.99
2018-11-06T12:31:09.086Z,99.99
2018-11-06T12:32:09.064Z,99.99
2018-11-06T12:33:09.041Z,99.99
2018-11-06T12:34:09.018Z,99.99
2018-11-06T12:35:08.995Z,99.99
2018-11-06T12:36:08.975Z,99.99
2018-11-06T12:37:09.084Z,99.99
2018-11-06T12:38:08.928Z,99.99
2018-11-06T12:39:08.905Z,99.99
2018-11-06T12:40:08.884Z,99.99
2018-11-06T12:41:08.859Z,99.99
2018-11-06T12:42:08.836Z,99.99
2018-11-06T12:43:08.904Z,99.99
2018-11-06T12:44:08.792Z,99.99
2018-11-06T12:45:08.769Z,99.99
2018-11-06T12:46:08.747Z,99.99
2018-11-06T12:47:08.723Z,99.99
2018-11-06T12:48:08.702Z,99.99
2018-11-06T12:49:08.679Z,99.99
2018-11-06T12:50:08.741Z,99.99
2018-11-06T12:51:08.634Z,99.99
2018-11-06T12:52:08.611Z,99.99